sensor_id;sensor_type;location;lat;lon;timestamp;pressure;altitude;pressure_sealevel;temperature;humidity
2268;BME280;11052;43.338;25.502;2022-11-06T00:01:41;100196.09;;;15.35;89.31
2268;BME280;11052;43.338;25.502;2022-11-06T00:04:08;100208.38;;;15.16;89.77
2268;BME280;11052;43.338;25.502;2022-11-06T00:06:37;100208.69;;;15.10;90.02
2268;BME280;11052;43.338;25.502;2022-11-06T00:09:17;100211.06;;;14.97;89.84
2268;BME280;11052;43.338;25.502;2022-11-06T00:11:45;100207.53;;;14.64;92.65
2268;BME280;11052;43.338;25.502;2022-11-06T00:14:13;100206.03;;;14.58;93.41
2268;BME280;11052;43.338;25.502;2022-11-06T00:16:41;100204.69;;;14.68;93.71
2268;BME280;11052;43.338;25.502;2022-11-06T00:19:09;100201.44;;;14.81;93.91
2268;BME280;11052;43.338;25.502;2022-11-06T00:21:38;100203.13;;;14.82;93.75
2268;BME280;11052;43.338;25.502;2022-11-06T00:24:06;100201.66;;;14.76;93.63
2268;BME280;11052;43.338;25.502;2022-11-06T00:26:34;100210.81;;;14.67;94.59
2268;BME280;11052;43.338;25.502;2022-11-06T00:29:02;100210.13;;;14.64;94.75
2268;BME280;11052;43.338;25.502;2022-11-06T00:31:31;100213.59;;;14.64;96.40
2268;BME280;11052;43.338;25.502;2022-11-06T00:34:00;100213.34;;;14.69;95.91
2268;BME280;11052;43.338;25.502;2022-11-06T00:36:28;100215.41;;;14.62;96.65
2268;BME280;11052;43.338;25.502;2022-11-06T00:38:58;100219.56;;;14.66;96.53
2268;BME280;11052;43.338;25.502;2022-11-06T00:41:26;100218.66;;;14.67;95.68
2268;BME280;11052;43.338;25.502;2022-11-06T00:43:54;100212.72;;;14.64;95.96
2268;BME280;11052;43.338;25.502;2022-11-06T00:46:23;100214.94;;;14.54;97.06
2268;BME280;11052;43.338;25.502;2022-11-06T00:48:51;100210.72;;;14.52;96.75
2268;BME280;11052;43.338;25.502;2022-11-06T00:51:20;100214.38;;;14.48;98.51
2268;BME280;11052;43.338;25.502;2022-11-06T00:53:47;100210.16;;;14.45;99.17
2268;BME280;11052;43.338;25.502;2022-11-06T00:56:20;100219.88;;;14.41;99.89
2268;BME280;11052;43.338;25.502;2022-11-06T00:58:48;100209.25;;;14.46;100.00
2268;BME280;11052;43.338;25.502;2022-11-06T01:01:16;100224.13;;;14.44;100.00
2268;BME280;11052;43.338;25.502;2022-11-06T01:03:45;100221.75;;;14.38;100.00
2268;BME280;11052;43.338;25.502;2022-11-06T01:06:15;100218.19;;;14.76;100.00
2268;BME280;11052;43.338;25.502;2022-11-06T01:08:43;100213.28;;;14.88;100.00
2268;BME280;11052;43.338;25.502;2022-11-06T01:11:12;100212.38;;;14.89;98.74
2268;BME280;11052;43.338;25.502;2022-11-06T01:13:42;100203.00;;;14.85;99.06
2268;BME280;11052;43.338;25.502;2022-11-06T01:16:12;100200.69;;;14.79;100.00
2268;BME280;11052;43.338;25.502;2022-11-06T01:18:41;100198.28;;;14.74;100.00
2268;BME280;11052;43.338;25.502;2022-11-06T01:21:11;100204.75;;;14.67;100.00
2268;BME280;11052;43.338;25.502;2022-11-06T01:23:39;100209.13;;;14.66;100.00
2268;BME280;11052;43.338;25.502;2022-11-06T01:26:08;100206.81;;;14.60;100.00
2268;BME280;11052;43.338;25.502;2022-11-06T01:28:35;100202.81;;;14.53;100.00
2268;BME280;11052;43.338;25.502;2022-11-06T01:31:06;100203.81;;;14.51;100.00
2268;BME280;11052;43.338;25.502;2022-11-06T01:33:33;100203.81;;;14.51;100.00
2268;BME280;11052;43.338;25.502;2022-11-06T01:36:00;100209.88;;;14.51;100.00
2268;BME280;11052;43.338;25.502;2022-11-06T01:38:27;100207.09;;;14.35;100.00
2268;BME280;11052;43.338;25.502;2022-11-06T01:40:55;100206.63;;;14.27;100.00
2268;BME280;11052;43.338;25.502;2022-11-06T01:43:23;100208.81;;;14.18;100.00
2268;BME280;11052;43.338;25.502;2022-11-06T01:45:52;100210.72;;;14.14;100.00
2268;BME280;11052;43.338;25.502;2022-11-06T01:48:23;100206.25;;;14.16;100.00
2268;BME280;11052;43.338;25.502;2022-11-06T01:50:55;100210.91;;;14.09;100.00
2268;BME280;11052;43.338;25.502;2022-11-06T01:53:22;100204.72;;;13.93;100.00
2268;BME280;11052;43.338;25.502;2022-11-06T01:55:53;100206.34;;;13.96;100.00
2268;BME280;11052;43.338;25.502;2022-11-06T01:58:24;100198.09;;;14.05;100.00
2268;BME280;11052;43.338;25.502;2022-11-06T02:00:52;100202.47;;;14.04;100.00
2268;BME280;11052;43.338;25.502;2022-11-06T02:03:21;100188.91;;;14.34;100.00
2268;BME280;11052;43.338;25.502;2022-11-06T02:05:49;100189.41;;;14.61;100.00
2268;BME280;11052;43.338;25.502;2022-11-06T02:08:18;100187.66;;;14.96;100.00
2268;BME280;11052;43.338;25.502;2022-11-06T02:10:46;100185.66;;;15.18;100.00
2268;BME280;11052;43.338;25.502;2022-11-06T02:13:26;100187.72;;;15.29;100.00
2268;BME280;11052;43.338;25.502;2022-11-06T02:16:03;100194.00;;;15.59;100.00
2268;BME280;11052;43.338;25.502;2022-11-06T02:19:05;100182.09;;;15.69;100.00
2268;BME280;11052;43.338;25.502;2022-11-06T02:22:05;100190.91;;;15.84;100.00
2268;BME280;11052;43.338;25.502;2022-11-06T02:24:52;100200.59;;;15.82;100.00
2268;BME280;11052;43.338;25.502;2022-11-06T02:27:23;100203.06;;;15.85;99.93
2268;BME280;11052;43.338;25.502;2022-11-06T02:29:57;100200.09;;;15.76;100.00
2268;BME280;11052;43.338;25.502;2022-11-06T02:32:29;100210.53;;;15.76;100.00
2268;BME280;11052;43.338;25.502;2022-11-06T02:35:00;100209.31;;;15.65;100.00
2268;BME280;11052;43.338;25.502;2022-11-06T02:37:33;100210.53;;;15.60;100.00
2268;BME280;11052;43.338;25.502;2022-11-06T02:40:05;100216.69;;;15.59;100.00
2268;BME280;11052;43.338;25.502;2022-11-06T02:42:37;100213.72;;;15.65;100.00
2268;BME280;11052;43.338;25.502;2022-11-06T02:45:08;100213.63;;;15.66;100.00
2268;BME280;11052;43.338;25.502;2022-11-06T02:47:37;100203.97;;;15.84;100.00
2268;BME280;11052;43.338;25.502;2022-11-06T02:50:09;100209.41;;;15.97;98.64
2268;BME280;11052;43.338;25.502;2022-11-06T02:52:41;100218.59;;;16.04;97.82
2268;BME280;11052;43.338;25.502;2022-11-06T02:55:14;100225.09;;;16.13;95.54
2268;BME280;11052;43.338;25.502;2022-11-06T02:57:46;100213.56;;;16.17;95.00
2268;BME280;11052;43.338;25.502;2022-11-06T03:00:17;100210.53;;;16.24;93.70
2268;BME280;11052;43.338;25.502;2022-11-06T03:02:47;100210.09;;;16.32;91.99
2268;BME280;11052;43.338;25.502;2022-11-06T03:05:18;100218.38;;;16.40;91.38
2268;BME280;11052;43.338;25.502;2022-11-06T03:07:51;100212.22;;;16.41;90.44
2268;BME280;11052;43.338;25.502;2022-11-06T03:10:22;100227.66;;;16.46;89.61
2268;BME280;11052;43.338;25.502;2022-11-06T03:12:54;100221.84;;;16.41;89.87
2268;BME280;11052;43.338;25.502;2022-11-06T03:15:30;100232.97;;;16.44;89.80
2268;BME280;11052;43.338;25.502;2022-11-06T03:18:05;100227.88;;;16.57;88.63
2268;BME280;11052;43.338;25.502;2022-11-06T03:20:39;100222.63;;;16.57;87.94
2268;BME280;11052;43.338;25.502;2022-11-06T03:23:10;100223.31;;;16.60;87.39
2268;BME280;11052;43.338;25.502;2022-11-06T03:25:43;100237.16;;;16.62;86.98
2268;BME280;11052;43.338;25.502;2022-11-06T03:28:18;100230.84;;;16.66;86.67
2268;BME280;11052;43.338;25.502;2022-11-06T03:30:52;100235.56;;;16.76;86.39
2268;BME280;11052;43.338;25.502;2022-11-06T03:33:27;100230.00;;;16.82;85.43
2268;BME280;11052;43.338;25.502;2022-11-06T03:36:01;100227.94;;;16.87;84.70
2268;BME280;11052;43.338;25.502;2022-11-06T03:38:32;100234.13;;;16.86;84.12
2268;BME280;11052;43.338;25.502;2022-11-06T03:41:03;100236.66;;;16.87;83.39
2268;BME280;11052;43.338;25.502;2022-11-06T03:43:35;100240.28;;;16.85;84.12
2268;BME280;11052;43.338;25.502;2022-11-06T03:46:04;100243.44;;;16.76;84.43
2268;BME280;11052;43.338;25.502;2022-11-06T03:48:35;100249.00;;;16.69;85.53
2268;BME280;11052;43.338;25.502;2022-11-06T03:51:08;100247.31;;;16.68;85.43
2268;BME280;11052;43.338;25.502;2022-11-06T03:53:44;100255.00;;;16.71;85.49
2268;BME280;11052;43.338;25.502;2022-11-06T03:56:15;100259.38;;;16.71;85.27
2268;BME280;11052;43.338;25.502;2022-11-06T03:58:47;100261.16;;;16.70;85.53
2268;BME280;11052;43.338;25.502;2022-11-06T04:01:19;100263.88;;;16.69;85.56
2268;BME280;11052;43.338;25.502;2022-11-06T04:03:50;100267.88;;;16.59;86.74
2268;BME280;11052;43.338;25.502;2022-11-06T04:06:24;100274.47;;;16.50;87.42
2268;BME280;11052;43.338;25.502;2022-11-06T04:08:55;100268.09;;;16.40;88.16
2268;BME280;11052;43.338;25.502;2022-11-06T04:11:41;100275.50;;;16.32;89.03
2268;BME280;11052;43.338;25.502;2022-11-06T04:14:30;100276.91;;;16.22;90.88
2268;BME280;11052;43.338;25.502;2022-11-06T04:17:01;100283.50;;;16.13;92.61
2268;BME280;11052;43.338;25.502;2022-11-06T04:19:29;100276.72;;;16.09;94.26
2268;BME280;11052;43.338;25.502;2022-11-06T04:22:10;100277.81;;;16.05;95.98
2268;BME280;11052;43.338;25.502;2022-11-06T04:24:48;100279.34;;;16.09;96.04
2268;BME280;11052;43.338;25.502;2022-11-06T04:27:49;100285.59;;;16.06;97.02
2268;BME280;11052;43.338;25.502;2022-11-06T04:30:21;100284.97;;;16.01;97.07
2268;BME280;11052;43.338;25.502;2022-11-06T04:33:01;100290.69;;;15.92;98.19
2268;BME280;11052;43.338;25.502;2022-11-06T04:35:38;100293.63;;;15.86;98.54
2268;BME280;11052;43.338;25.502;2022-11-06T04:38:13;100286.97;;;15.63;100.00
2268;BME280;11052;43.338;25.502;2022-11-06T04:40:52;100297.03;;;15.54;100.00
2268;BME280;11052;43.338;25.502;2022-11-06T04:43:25;100297.88;;;15.54;100.00
2268;BME280;11052;43.338;25.502;2022-11-06T04:45:58;100298.41;;;15.44;100.00
2268;BME280;11052;43.338;25.502;2022-11-06T04:48:27;100304.63;;;15.24;100.00
2268;BME280;11052;43.338;25.502;2022-11-06T04:50:58;100298.47;;;15.25;100.00
2268;BME280;11052;43.338;25.502;2022-11-06T04:53:28;100306.53;;;15.20;100.00
2268;BME280;11052;43.338;25.502;2022-11-06T04:56:01;100306.75;;;15.16;100.00
2268;BME280;11052;43.338;25.502;2022-11-06T04:58:32;100293.72;;;15.16;100.00
2268;BME280;11052;43.338;25.502;2022-11-06T05:01:01;100305.00;;;15.16;100.00
2268;BME280;11052;43.338;25.502;2022-11-06T05:03:28;100303.94;;;15.20;100.00
2268;BME280;11052;43.338;25.502;2022-11-06T05:05:55;100305.91;;;15.15;100.00
2268;BME280;11052;43.338;25.502;2022-11-06T05:08:22;100299.84;;;15.15;100.00
2268;BME280;11052;43.338;25.502;2022-11-06T05:10:49;100298.00;;;15.17;100.00
2268;BME280;11052;43.338;25.502;2022-11-06T05:13:16;100306.75;;;15.16;100.00
2268;BME280;11052;43.338;25.502;2022-11-06T05:15:44;100307.47;;;15.19;100.00
2268;BME280;11052;43.338;25.502;2022-11-06T05:18:12;100320.03;;;15.11;100.00
2268;BME280;11052;43.338;25.502;2022-11-06T05:20:39;100322.06;;;15.23;100.00
2268;BME280;11052;43.338;25.502;2022-11-06T05:23:06;100330.66;;;15.25;100.00
2268;BME280;11052;43.338;25.502;2022-11-06T05:25:34;100336.59;;;15.29;100.00
2268;BME280;11052;43.338;25.502;2022-11-06T05:28:02;100338.56;;;15.24;100.00
2268;BME280;11052;43.338;25.502;2022-11-06T05:30:32;100337.50;;;15.28;100.00
2268;BME280;11052;43.338;25.502;2022-11-06T05:33:00;100343.97;;;15.38;100.00
2268;BME280;11052;43.338;25.502;2022-11-06T05:35:28;100350.19;;;15.35;100.00
2268;BME280;11052;43.338;25.502;2022-11-06T05:37:59;100358.81;;;15.37;100.00
2268;BME280;11052;43.338;25.502;2022-11-06T05:40:26;100363.88;;;15.40;100.00
2268;BME280;11052;43.338;25.502;2022-11-06T05:42:53;100367.41;;;15.39;100.00
2268;BME280;11052;43.338;25.502;2022-11-06T05:45:20;100374.03;;;15.47;100.00
2268;BME280;11052;43.338;25.502;2022-11-06T05:47:47;100380.19;;;15.63;100.00
2268;BME280;11052;43.338;25.502;2022-11-06T05:50:14;100384.19;;;15.70;100.00
2268;BME280;11052;43.338;25.502;2022-11-06T05:52:43;100386.28;;;15.81;100.00
2268;BME280;11052;43.338;25.502;2022-11-06T05:55:10;100387.44;;;15.92;100.00
2268;BME280;11052;43.338;25.502;2022-11-06T05:57:37;100390.88;;;16.10;100.00
2268;BME280;11052;43.338;25.502;2022-11-06T06:00:06;100397.47;;;16.34;100.00
2268;BME280;11052;43.338;25.502;2022-11-06T06:02:33;100400.16;;;16.66;100.00
2268;BME280;11052;43.338;25.502;2022-11-06T06:05:01;100409.22;;;16.92;100.00
2268;BME280;11052;43.338;25.502;2022-11-06T06:07:30;100421.91;;;17.31;100.00
2268;BME280;11052;43.338;25.502;2022-11-06T06:09:59;100413.13;;;17.78;99.53
2268;BME280;11052;43.338;25.502;2022-11-06T06:12:26;100425.56;;;18.32;94.18
2268;BME280;11052;43.338;25.502;2022-11-06T06:14:53;100424.41;;;18.66;90.68
2268;BME280;11052;43.338;25.502;2022-11-06T06:17:20;100421.66;;;18.96;85.31
2268;BME280;11052;43.338;25.502;2022-11-06T06:19:48;100422.56;;;19.37;82.16
2268;BME280;11052;43.338;25.502;2022-11-06T06:22:15;100423.66;;;19.61;79.54
2268;BME280;11052;43.338;25.502;2022-11-06T06:24:42;100420.44;;;19.83;77.04
2268;BME280;11052;43.338;25.502;2022-11-06T06:27:10;100416.56;;;20.01;79.32
2268;BME280;11052;43.338;25.502;2022-11-06T06:29:38;100420.47;;;20.34;75.64
2268;BME280;11052;43.338;25.502;2022-11-06T06:32:05;100423.34;;;20.43;74.97
2268;BME280;11052;43.338;25.502;2022-11-06T06:34:32;100418.06;;;20.69;71.88
2268;BME280;11052;43.338;25.502;2022-11-06T06:36:59;100426.41;;;20.63;69.56
2268;BME280;11052;43.338;25.502;2022-11-06T06:39:27;100419.41;;;20.11;70.58
2268;BME280;11052;43.338;25.502;2022-11-06T06:41:54;100422.97;;;19.97;73.14
2268;BME280;11052;43.338;25.502;2022-11-06T06:44:22;100424.72;;;19.71;72.09
2268;BME280;11052;43.338;25.502;2022-11-06T06:46:49;100420.78;;;19.51;74.93
2268;BME280;11052;43.338;25.502;2022-11-06T06:49:16;100424.06;;;19.41;74.87
2268;BME280;11052;43.338;25.502;2022-11-06T06:51:46;100420.63;;;19.26;75.59
2268;BME280;11052;43.338;25.502;2022-11-06T06:54:13;100419.69;;;19.27;76.38
2268;BME280;11052;43.338;25.502;2022-11-06T06:56:40;100424.47;;;19.35;76.74
2268;BME280;11052;43.338;25.502;2022-11-06T06:59:07;100424.25;;;19.38;76.06
2268;BME280;11052;43.338;25.502;2022-11-06T07:01:36;100419.94;;;19.37;75.86
2268;BME280;11052;43.338;25.502;2022-11-06T07:04:03;100426.69;;;19.55;76.13
2268;BME280;11052;43.338;25.502;2022-11-06T07:06:30;100426.53;;;19.71;76.63
2268;BME280;11052;43.338;25.502;2022-11-06T07:08:57;100425.59;;;19.84;76.40
2268;BME280;11052;43.338;25.502;2022-11-06T07:11:24;100425.38;;;19.75;75.94
2268;BME280;11052;43.338;25.502;2022-11-06T07:13:51;100425.69;;;19.70;76.58
2268;BME280;11052;43.338;25.502;2022-11-06T07:16:18;100431.06;;;19.81;75.68
2268;BME280;11052;43.338;25.502;2022-11-06T07:18:48;100438.25;;;20.05;75.07
2268;BME280;11052;43.338;25.502;2022-11-06T07:21:15;100427.31;;;20.11;75.84
2268;BME280;11052;43.338;25.502;2022-11-06T07:23:42;100428.69;;;20.29;75.72
2268;BME280;11052;43.338;25.502;2022-11-06T07:26:09;100428.00;;;20.40;74.03
2268;BME280;11052;43.338;25.502;2022-11-06T07:28:36;100428.28;;;20.73;73.62
2268;BME280;11052;43.338;25.502;2022-11-06T07:31:05;100433.50;;;20.86;72.04
2268;BME280;11052;43.338;25.502;2022-11-06T07:33:33;100439.47;;;20.77;71.21
2268;BME280;11052;43.338;25.502;2022-11-06T07:36:06;100435.16;;;20.63;71.88
2268;BME280;11052;43.338;25.502;2022-11-06T07:38:34;100449.06;;;20.52;72.66
2268;BME280;11052;43.338;25.502;2022-11-06T07:41:02;100451.81;;;20.38;73.44
2268;BME280;11052;43.338;25.502;2022-11-06T07:43:30;100454.34;;;20.40;71.64
2268;BME280;11052;43.338;25.502;2022-11-06T07:45:58;100461.19;;;20.68;71.87
2268;BME280;11052;43.338;25.502;2022-11-06T07:48:27;100458.03;;;20.50;70.93
2268;BME280;11052;43.338;25.502;2022-11-06T07:50:54;100459.28;;;20.44;70.85
2268;BME280;11052;43.338;25.502;2022-11-06T07:53:23;100462.84;;;19.78;73.21
2268;BME280;11052;43.338;25.502;2022-11-06T07:55:52;100465.34;;;19.67;74.92
2268;BME280;11052;43.338;25.502;2022-11-06T07:58:19;100461.06;;;19.38;76.26
2268;BME280;11052;43.338;25.502;2022-11-06T08:00:47;100471.91;;;19.19;77.73
2268;BME280;11052;43.338;25.502;2022-11-06T08:03:15;100461.28;;;19.20;78.23
2268;BME280;11052;43.338;25.502;2022-11-06T08:05:42;100461.63;;;19.02;79.51
2268;BME280;11052;43.338;25.502;2022-11-06T08:08:10;100459.28;;;18.97;80.27
2268;BME280;11052;43.338;25.502;2022-11-06T08:10:39;100464.84;;;18.92;80.44
2268;BME280;11052;43.338;25.502;2022-11-06T08:13:08;100467.94;;;18.99;82.35
2268;BME280;11052;43.338;25.502;2022-11-06T08:15:36;100466.03;;;19.42;79.47
2268;BME280;11052;43.338;25.502;2022-11-06T08:18:04;100472.09;;;19.71;76.53
2268;BME280;11052;43.338;25.502;2022-11-06T08:20:31;100472.03;;;19.98;75.69
2268;BME280;11052;43.338;25.502;2022-11-06T08:22:58;100469.84;;;20.05;74.46
2268;BME280;11052;43.338;25.502;2022-11-06T08:25:26;100469.84;;;20.17;73.11
2268;BME280;11052;43.338;25.502;2022-11-06T08:27:55;100467.72;;;20.49;72.05
2268;BME280;11052;43.338;25.502;2022-11-06T08:30:23;100471.13;;;20.88;69.46
2268;BME280;11052;43.338;25.502;2022-11-06T08:32:50;100469.00;;;21.06;68.13
2268;BME280;11052;43.338;25.502;2022-11-06T08:35:17;100478.72;;;21.05;67.52
2268;BME280;11052;43.338;25.502;2022-11-06T08:37:45;100469.53;;;21.23;67.02
2268;BME280;11052;43.338;25.502;2022-11-06T08:40:12;100470.16;;;21.14;67.93
2268;BME280;11052;43.338;25.502;2022-11-06T08:42:39;100465.50;;;21.18;66.92
2268;BME280;11052;43.338;25.502;2022-11-06T08:45:08;100473.53;;;21.16;65.99
2268;BME280;11052;43.338;25.502;2022-11-06T08:47:36;100473.53;;;21.16;65.86
2268;BME280;11052;43.338;25.502;2022-11-06T08:50:03;100478.94;;;21.02;64.72
2268;BME280;11052;43.338;25.502;2022-11-06T08:52:30;100476.31;;;20.89;65.92
2268;BME280;11052;43.338;25.502;2022-11-06T08:54:57;100474.00;;;20.85;66.98
2268;BME280;11052;43.338;25.502;2022-11-06T08:57:24;100473.13;;;20.97;65.23
2268;BME280;11052;43.338;25.502;2022-11-06T08:59:52;100478.28;;;20.99;64.62
2268;BME280;11052;43.338;25.502;2022-11-06T09:02:21;100472.50;;;20.93;64.88
2268;BME280;11052;43.338;25.502;2022-11-06T09:04:48;100469.75;;;20.95;64.99
2268;BME280;11052;43.338;25.502;2022-11-06T09:07:15;100475.88;;;20.95;64.17
2268;BME280;11052;43.338;25.502;2022-11-06T09:09:42;100478.63;;;20.94;63.18
2268;BME280;11052;43.338;25.502;2022-11-06T09:12:09;100471.66;;;20.93;63.16
2268;BME280;11052;43.338;25.502;2022-11-06T09:14:36;100467.91;;;21.21;63.55
2268;BME280;11052;43.338;25.502;2022-11-06T09:17:04;100483.06;;;21.43;62.23
2268;BME280;11052;43.338;25.502;2022-11-06T09:19:33;100482.56;;;21.38;60.86
2268;BME280;11052;43.338;25.502;2022-11-06T09:22:00;100476.56;;;21.36;60.76
2268;BME280;11052;43.338;25.502;2022-11-06T09:24:28;100480.31;;;21.44;60.63
2268;BME280;11052;43.338;25.502;2022-11-06T09:26:55;100479.84;;;21.63;60.63
2268;BME280;11052;43.338;25.502;2022-11-06T09:29:22;100470.75;;;21.78;59.61
2268;BME280;11052;43.338;25.502;2022-11-06T09:31:49;100469.81;;;21.79;58.76
2268;BME280;11052;43.338;25.502;2022-11-06T09:34:16;100464.66;;;21.78;59.10
2268;BME280;11052;43.338;25.502;2022-11-06T09:36:45;100464.97;;;21.73;58.86
2268;BME280;11052;43.338;25.502;2022-11-06T09:39:12;100469.50;;;21.95;59.18
2268;BME280;11052;43.338;25.502;2022-11-06T09:41:52;100464.72;;;22.00;58.26
2268;BME280;11052;43.338;25.502;2022-11-06T09:44:31;100466.53;;;22.00;57.98
2268;BME280;11052;43.338;25.502;2022-11-06T09:47:04;100459.97;;;22.05;58.90
2268;BME280;11052;43.338;25.502;2022-11-06T09:49:39;100454.16;;;22.24;57.15
2268;BME280;11052;43.338;25.502;2022-11-06T09:52:12;100458.72;;;22.22;57.17
2268;BME280;11052;43.338;25.502;2022-11-06T09:54:45;100450.06;;;22.20;56.38
2268;BME280;11052;43.338;25.502;2022-11-06T09:57:18;100457.91;;;22.33;56.48
2268;BME280;11052;43.338;25.502;2022-11-06T09:59:47;100457.31;;;22.40;56.23
2268;BME280;11052;43.338;25.502;2022-11-06T10:02:23;100449.84;;;22.34;55.93
2268;BME280;11052;43.338;25.502;2022-11-06T10:04:56;100455.59;;;22.28;56.08
2268;BME280;11052;43.338;25.502;2022-11-06T10:07:28;100449.97;;;22.33;54.99
2268;BME280;11052;43.338;25.502;2022-11-06T10:09:56;100443.94;;;22.19;55.43
2268;BME280;11052;43.338;25.502;2022-11-06T10:12:32;100453.16;;;22.14;55.08
2268;BME280;11052;43.338;25.502;2022-11-06T10:15:11;100447.56;;;21.95;55.62
2268;BME280;11052;43.338;25.502;2022-11-06T10:17:48;100443.69;;;21.87;55.84
2268;BME280;11052;43.338;25.502;2022-11-06T10:20:22;100443.31;;;22.05;56.21
2268;BME280;11052;43.338;25.502;2022-11-06T10:23:02;100449.22;;;22.19;55.30
2268;BME280;11052;43.338;25.502;2022-11-06T10:25:44;100448.25;;;22.20;54.69
2268;BME280;11052;43.338;25.502;2022-11-06T10:28:21;100444.88;;;22.07;54.44
2268;BME280;11052;43.338;25.502;2022-11-06T10:30:59;100440.09;;;21.88;55.37
2268;BME280;11052;43.338;25.502;2022-11-06T10:33:42;100441.72;;;21.78;55.53
2268;BME280;11052;43.338;25.502;2022-11-06T10:36:15;100447.13;;;21.77;56.39
2268;BME280;11052;43.338;25.502;2022-11-06T10:38:46;100438.19;;;21.90;56.64
2268;BME280;11052;43.338;25.502;2022-11-06T10:41:19;100442.34;;;22.06;55.72
2268;BME280;11052;43.338;25.502;2022-11-06T10:43:50;100443.59;;;22.24;54.58
2268;BME280;11052;43.338;25.502;2022-11-06T10:46:25;100433.97;;;22.12;55.01
2268;BME280;11052;43.338;25.502;2022-11-06T10:48:57;100433.50;;;22.18;55.78
2268;BME280;11052;43.338;25.502;2022-11-06T10:51:42;100433.47;;;22.07;55.26
2268;BME280;11052;43.338;25.502;2022-11-06T10:54:25;100428.22;;;21.94;55.31
2268;BME280;11052;43.338;25.502;2022-11-06T10:57:08;100433.00;;;21.89;55.38
2268;BME280;11052;43.338;25.502;2022-11-06T10:59:41;100427.75;;;21.89;55.46
2268;BME280;11052;43.338;25.502;2022-11-06T11:02:21;100424.53;;;21.97;55.05
2268;BME280;11052;43.338;25.502;2022-11-06T11:04:49;100430.16;;;21.92;55.43
2268;BME280;11052;43.338;25.502;2022-11-06T11:07:17;100429.31;;;21.91;55.94
2268;BME280;11052;43.338;25.502;2022-11-06T11:09:45;100418.94;;;21.77;57.13
2268;BME280;11052;43.338;25.502;2022-11-06T11:12:22;100422.91;;;21.83;57.15
2268;BME280;11052;43.338;25.502;2022-11-06T11:15:11;100429.25;;;21.80;57.58
2268;BME280;11052;43.338;25.502;2022-11-06T11:17:40;100426.75;;;21.79;56.80
2268;BME280;11052;43.338;25.502;2022-11-06T11:20:30;100428.63;;;21.66;56.77
2268;BME280;11052;43.338;25.502;2022-11-06T11:23:13;100426.84;;;21.77;57.03
2268;BME280;11052;43.338;25.502;2022-11-06T11:25:44;100432.84;;;21.79;56.80
2268;BME280;11052;43.338;25.502;2022-11-06T11:28:23;100427.75;;;21.89;57.39
2268;BME280;11052;43.338;25.502;2022-11-06T11:30:52;100430.94;;;22.05;56.10
2268;BME280;11052;43.338;25.502;2022-11-06T11:33:23;100430.53;;;21.99;56.22
2268;BME280;11052;43.338;25.502;2022-11-06T11:35:52;100430.16;;;21.92;55.14
2268;BME280;11052;43.338;25.502;2022-11-06T11:38:21;100419.81;;;21.89;55.67
2268;BME280;11052;43.338;25.502;2022-11-06T11:41:04;100431.00;;;21.92;56.27
2268;BME280;11052;43.338;25.502;2022-11-06T11:43:32;100434.94;;;21.87;56.03
2268;BME280;11052;43.338;25.502;2022-11-06T11:46:11;100429.41;;;21.90;55.90
2268;BME280;11052;43.338;25.502;2022-11-06T11:48:41;100433.84;;;21.89;56.67
2268;BME280;11052;43.338;25.502;2022-11-06T11:54:03;100429.81;;;21.97;57.40
2268;BME280;11052;43.338;25.502;2022-11-06T11:56:34;100432.06;;;21.90;58.13
2268;BME280;11052;43.338;25.502;2022-11-06T11:59:15;100427.97;;;21.86;59.45
2268;BME280;11052;43.338;25.502;2022-11-06T12:01:43;100420.00;;;21.75;59.66
2268;BME280;11052;43.338;25.502;2022-11-06T12:04:18;100426.59;;;21.69;60.82
2268;BME280;11052;43.338;25.502;2022-11-06T12:06:54;100428.50;;;21.67;61.12
2268;BME280;11052;43.338;25.502;2022-11-06T12:09:23;100423.75;;;21.83;61.45
2268;BME280;11052;43.338;25.502;2022-11-06T12:11:55;100421.22;;;21.82;61.45
2268;BME280;11052;43.338;25.502;2022-11-06T12:14:27;100432.63;;;21.82;60.37
2268;BME280;11052;43.338;25.502;2022-11-06T12:16:58;100431.44;;;21.86;60.53
2268;BME280;11052;43.338;25.502;2022-11-06T12:19:28;100427.75;;;21.89;58.39
2268;BME280;11052;43.338;25.502;2022-11-06T12:22:02;100424.13;;;21.90;58.81
2268;BME280;11052;43.338;25.502;2022-11-06T12:24:36;100432.34;;;21.74;59.27
2268;BME280;11052;43.338;25.502;2022-11-06T12:27:10;100426.59;;;21.69;60.10
2268;BME280;11052;43.338;25.502;2022-11-06T12:29:44;100427.78;;;21.65;59.63
2268;BME280;11052;43.338;25.502;2022-11-06T12:32:23;100421.69;;;21.65;59.71
2268;BME280;11052;43.338;25.502;2022-11-06T12:35:00;100426.22;;;21.39;60.49
2268;BME280;11052;43.338;25.502;2022-11-06T12:37:38;100427.47;;;21.46;60.43
2268;BME280;11052;43.338;25.502;2022-11-06T12:40:15;100427.91;;;21.40;60.24
2268;BME280;11052;43.338;25.502;2022-11-06T12:43:05;100431.28;;;21.42;59.82
2268;BME280;11052;43.338;25.502;2022-11-06T12:45:51;100431.44;;;21.27;60.35
2268;BME280;11052;43.338;25.502;2022-11-06T12:48:40;100422.47;;;21.30;61.12
2268;BME280;11052;43.338;25.502;2022-11-06T12:51:17;100429.13;;;21.23;61.03
2268;BME280;11052;43.338;25.502;2022-11-06T12:53:56;100427.44;;;21.22;61.07
2268;BME280;11052;43.338;25.502;2022-11-06T12:56:33;100429.44;;;21.18;61.36
2268;BME280;11052;43.338;25.502;2022-11-06T12:59:15;100436.94;;;21.12;62.19
2268;BME280;11052;43.338;25.502;2022-11-06T13:01:53;100445.78;;;21.11;62.85
2268;BME280;11052;43.338;25.502;2022-11-06T13:04:34;100436.81;;;21.13;63.52
2268;BME280;11052;43.338;25.502;2022-11-06T13:07:33;100435.25;;;21.11;64.31
2268;BME280;11052;43.338;25.502;2022-11-06T13:10:18;100438.84;;;21.10;65.29
2268;BME280;11052;43.338;25.502;2022-11-06T13:12:57;100434.41;;;21.10;65.89